createdAt,value
2017-07-30T00:01:33.416Z,20.20
2017-07-30T00:04:02.096Z,20.20
2017-07-30T00:06:30.591Z,20.20
2017-07-30T00:08:58.848Z,20.10
2017-07-30T00:11:27.142Z,20.10
2017-07-30T00:13:55.402Z,20.10
2017-07-30T00:16:24.624Z,20.10
2017-07-30T00:18:52.874Z,20.00
2017-07-30T00:21:21.164Z,20.00
2017-07-30T00:23:49.427Z,20.00
2017-07-30T00:26:18.623Z,20.00
2017-07-30T00:28:46.888Z,20.00
2017-07-30T00:31:15.175Z,19.90
2017-07-30T00:33:43.463Z,19.90
2017-07-30T00:36:11.724Z,19.80
2017-07-30T00:38:40.012Z,19.80
2017-07-30T00:41:08.287Z,19.70
2017-07-30T00:43:36.891Z,19.70
2017-07-30T00:46:05.342Z,19.60
2017-07-30T00:48:33.653Z,19.60
2017-07-30T00:51:02.731Z,19.50
2017-07-30T00:53:30.971Z,19.50
2017-07-30T00:55:59.255Z,19.50
2017-07-30T00:58:27.541Z,19.50
2017-07-30T01:00:55.815Z,19.40
2017-07-30T01:03:24.113Z,19.40
2017-07-30T01:05:52.484Z,19.40
2017-07-30T01:08:20.851Z,19.40
2017-07-30T01:10:49.223Z,19.50
2017-07-30T01:13:17.515Z,19.50
2017-07-30T01:15:45.762Z,19.50
2017-07-30T01:18:14.075Z,19.60
2017-07-30T01:20:42.356Z,19.50
2017-07-30T01:23:11.416Z,19.50
2017-07-30T01:25:39.700Z,19.50
2017-07-30T01:28:08.089Z,19.50
2017-07-30T01:30:37.332Z,19.50
2017-07-30T01:33:05.620Z,19.40
2017-07-30T01:35:33.975Z,19.40
2017-07-30T01:38:02.302Z,19.40
2017-07-30T01:40:30.557Z,19.30
2017-07-30T01:42:58.847Z,19.20
2017-07-30T01:45:27.135Z,19.10
2017-07-30T01:47:55.493Z,19.10
2017-07-30T01:50:24.659Z,19.00
2017-07-30T01:52:52.937Z,19.10
2017-07-30T01:55:22.164Z,19.10
2017-07-30T01:57:51.384Z,19.00
2017-07-30T02:00:19.648Z,19.10
2017-07-30T02:02:48.023Z,19.00
2017-07-30T02:05:16.910Z,19.00
2017-07-30T02:07:45.209Z,19.00
2017-07-30T02:10:13.459Z,19.00
2017-07-30T02:12:41.753Z,19.00
2017-07-30T02:15:10.039Z,19.00
2017-07-30T02:17:38.331Z,19.10
2017-07-30T02:20:07.351Z,19.10
2017-07-30T02:22:35.647Z,19.10
2017-07-30T02:25:03.904Z,19.20
2017-07-30T02:27:32.212Z,19.10
2017-07-30T02:30:00.503Z,19.10
2017-07-30T02:32:28.899Z,19.20
2017-07-30T02:34:57.919Z,19.40
2017-07-30T02:37:26.238Z,19.30
2017-07-30T02:39:54.495Z,19.50
2017-07-30T02:42:22.778Z,19.50
2017-07-30T02:44:51.039Z,19.50
2017-07-30T02:47:19.314Z,19.50
2017-07-30T02:49:47.579Z,19.50
2017-07-30T02:52:15.900Z,19.40
2017-07-30T02:54:44.143Z,19.40
2017-07-30T02:57:12.431Z,19.50
2017-07-30T02:59:40.682Z,19.50
2017-07-30T03:02:08.971Z,19.40
2017-07-30T03:04:37.224Z,19.40
2017-07-30T03:07:05.519Z,19.40
2017-07-30T03:09:33.770Z,19.50
2017-07-30T03:12:02.060Z,19.50
2017-07-30T03:14:30.316Z,19.60
2017-07-30T03:16:58.651Z,19.70
2017-07-30T03:19:27.030Z,19.70
2017-07-30T03:21:55.305Z,19.70
2017-07-30T03:24:23.563Z,19.80
2017-07-30T03:26:52.332Z,19.70
2017-07-30T03:29:20.622Z,19.70
2017-07-30T03:31:48.918Z,19.80
2017-07-30T03:34:17.203Z,19.70
2017-07-30T03:36:45.674Z,19.70
2017-07-30T03:39:13.948Z,19.70
2017-07-30T03:41:42.207Z,19.70
2017-07-30T03:44:10.492Z,19.80
2017-07-30T03:46:39.629Z,19.80
2017-07-30T03:49:08.671Z,19.80
2017-07-30T03:51:36.919Z,19.80
2017-07-30T03:54:05.206Z,19.90
2017-07-30T03:59:08.199Z,19.90
2017-07-30T04:01:36.503Z,20.00
2017-07-30T04:04:04.796Z,20.10
2017-07-30T04:06:33.961Z,20.10
2017-07-30T04:09:02.268Z,20.20
2017-07-30T04:11:30.537Z,20.20
2017-07-30T04:13:58.824Z,20.20
2017-07-30T04:16:27.075Z,20.20
2017-07-30T04:18:55.356Z,20.20
2017-07-30T04:21:23.604Z,20.20
2017-07-30T04:23:51.902Z,20.20
2017-07-30T04:26:20.180Z,20.30
2017-07-30T04:28:48.490Z,20.30
2017-07-30T04:31:17.512Z,20.30
2017-07-30T04:33:45.787Z,20.30
2017-07-30T04:36:14.079Z,20.30
2017-07-30T04:38:42.363Z,20.30
2017-07-30T04:41:10.611Z,20.30
2017-07-30T04:43:38.918Z,20.30
2017-07-30T04:46:07.172Z,20.40
2017-07-30T04:48:35.488Z,20.50
2017-07-30T04:51:03.856Z,20.70
2017-07-30T04:53:32.098Z,20.80
2017-07-30T04:56:00.403Z,20.80
2017-07-30T04:58:28.655Z,20.80
2017-07-30T05:00:56.911Z,20.70
2017-07-30T05:03:25.232Z,20.60
2017-07-30T05:05:53.521Z,20.60
2017-07-30T05:08:21.768Z,20.60
2017-07-30T05:10:50.168Z,20.60
2017-07-30T05:13:18.403Z,20.60
2017-07-30T05:15:47.340Z,20.60
2017-07-30T05:18:15.590Z,20.70
2017-07-30T05:20:43.850Z,21.00
2017-07-30T05:23:12.139Z,22.00
2017-07-30T05:25:40.449Z,22.90
2017-07-30T05:28:09.735Z,23.30
2017-07-30T05:30:38.020Z,24.20
2017-07-30T05:33:06.326Z,24.50
2017-07-30T05:35:35.344Z,24.50
2017-07-30T05:38:03.599Z,24.50
2017-07-30T05:40:31.888Z,24.50
2017-07-30T05:43:00.172Z,24.40
2017-07-30T05:45:28.472Z,24.40
2017-07-30T05:47:56.762Z,24.90
2017-07-30T05:50:25.016Z,25.40
2017-07-30T05:52:53.624Z,25.20
2017-07-30T05:55:21.899Z,25.40
2017-07-30T05:57:50.266Z,25.30
2017-07-30T06:00:18.540Z,25.50
2017-07-30T06:02:47.130Z,25.60
2017-07-30T06:05:15.420Z,25.50
2017-07-30T06:07:44.471Z,26.20
2017-07-30T06:10:12.733Z,26.20
2017-07-30T06:12:41.014Z,26.40
2017-07-30T06:15:09.263Z,27.40
2017-07-30T06:17:37.544Z,27.70
2017-07-30T06:20:05.840Z,27.90
2017-07-30T06:22:34.132Z,28.30
2017-07-30T06:25:02.387Z,28.10
2017-07-30T06:27:30.675Z,28.30
2017-07-30T06:29:58.935Z,28.40
2017-07-30T06:32:27.215Z,28.40
2017-07-30T06:34:55.474Z,29.30
2017-07-30T06:37:23.763Z,29.60
2017-07-30T06:39:52.020Z,29.90
2017-07-30T06:42:20.303Z,30.00
2017-07-30T06:44:48.570Z,30.40
2017-07-30T06:47:16.902Z,30.60
2017-07-30T06:49:45.278Z,30.90
2017-07-30T06:52:13.563Z,31.50
2017-07-30T06:54:41.852Z,31.80
2017-07-30T06:57:10.907Z,31.60
2017-07-30T06:59:39.200Z,31.60
2017-07-30T07:02:07.454Z,31.40
2017-07-30T07:04:35.748Z,31.50
2017-07-30T07:07:04.048Z,31.50
2017-07-30T07:09:33.072Z,33.10
2017-07-30T07:12:01.332Z,33.10
2017-07-30T07:14:29.612Z,33.30
2017-07-30T07:16:57.920Z,33.90
2017-07-30T07:19:26.179Z,32.70
2017-07-30T07:21:54.438Z,32.60
2017-07-30T07:24:23.495Z,33.20
2017-07-30T07:26:51.747Z,33.20
2017-07-30T07:29:20.032Z,32.90
2017-07-30T07:31:48.290Z,32.20
2017-07-30T07:34:16.596Z,33.10
2017-07-30T07:36:44.879Z,33.30
2017-07-30T07:39:13.164Z,33.80
2017-07-30T07:41:42.231Z,32.80
2017-07-30T07:44:10.516Z,32.80
2017-07-30T07:46:39.813Z,33.70
2017-07-30T07:49:08.094Z,32.50
2017-07-30T07:51:36.362Z,32.90
2017-07-30T07:54:04.651Z,33.40
2017-07-30T07:56:32.902Z,33.30
2017-07-30T07:59:01.204Z,34.00
2017-07-30T08:01:29.487Z,34.30
2017-07-30T08:03:58.572Z,34.00
2017-07-30T08:06:26.814Z,34.00
2017-07-30T08:08:55.608Z,34.10
2017-07-30T08:11:23.892Z,34.10
2017-07-30T08:13:52.146Z,33.90
2017-07-30T08:16:20.432Z,33.60
2017-07-30T08:18:48.692Z,33.00
2017-07-30T08:21:16.985Z,33.50
2017-07-30T08:23:45.236Z,33.60
2017-07-30T08:26:13.520Z,33.20
2017-07-30T08:28:43.239Z,33.60
2017-07-30T08:31:11.515Z,33.60
2017-07-30T08:33:40.029Z,33.50
2017-07-30T08:36:08.312Z,33.30
2017-07-30T08:38:37.339Z,34.50
2017-07-30T08:41:05.639Z,34.50
2017-07-30T08:43:33.895Z,34.60
2017-07-30T08:46:02.183Z,34.60
2017-07-30T08:48:30.435Z,34.40
2017-07-30T08:50:59.654Z,34.50
2017-07-30T08:53:27.908Z,34.30
2017-07-30T08:55:56.164Z,34.30
2017-07-30T08:58:25.214Z,33.90
2017-07-30T09:00:54.472Z,33.90
2017-07-30T09:03:22.769Z,34.10
2017-07-30T09:05:52.007Z,34.20
2017-07-30T09:08:20.292Z,34.40
2017-07-30T09:10:49.311Z,33.80
2017-07-30T09:13:17.603Z,33.80
2017-07-30T09:15:45.863Z,34.00
2017-07-30T09:18:14.220Z,34.20
2017-07-30T09:20:44.239Z,34.40
2017-07-30T09:23:13.336Z,33.90
2017-07-30T09:25:41.609Z,33.90
2017-07-30T09:28:09.912Z,33.10
2017-07-30T09:30:38.167Z,33.40
2017-07-30T09:33:06.439Z,33.90
2017-07-30T09:35:34.736Z,34.20
2017-07-30T09:38:03.032Z,33.60
2017-07-30T09:40:31.315Z,33.60
2017-07-30T09:42:59.590Z,33.30
2017-07-30T09:45:27.883Z,33.10
2017-07-30T09:47:56.162Z,32.90
2017-07-30T09:50:24.421Z,32.20
2017-07-30T09:52:52.752Z,32.00
2017-07-30T09:55:21.011Z,31.70
2017-07-30T09:57:50.293Z,32.10
2017-07-30T10:00:19.351Z,32.60
2017-07-30T10:02:47.608Z,32.60
2017-07-30T10:05:15.890Z,32.80
2017-07-30T10:07:44.160Z,32.80
2017-07-30T10:10:12.789Z,32.30
2017-07-30T10:12:41.044Z,31.90
2017-07-30T10:15:10.236Z,32.20
2017-07-30T10:17:38.534Z,32.10
2017-07-30T10:20:06.845Z,32.10
2017-07-30T10:22:35.095Z,32.50
2017-07-30T10:25:04.263Z,33.10
2017-07-30T10:27:32.533Z,33.10
2017-07-30T10:30:00.807Z,32.70
2017-07-30T10:32:29.068Z,33.10
2017-07-30T10:34:57.355Z,33.30
2017-07-30T10:37:25.620Z,33.20
2017-07-30T10:39:53.924Z,33.10
2017-07-30T10:42:22.174Z,32.90
2017-07-30T10:44:50.432Z,33.00
2017-07-30T10:47:18.719Z,33.10
2017-07-30T10:49:47.012Z,32.60
2017-07-30T10:52:16.913Z,33.00
2017-07-30T10:54:45.200Z,33.00
2017-07-30T10:57:13.460Z,32.80
2017-07-30T10:59:41.743Z,32.20
2017-07-30T11:02:09.998Z,32.80
2017-07-30T11:04:38.412Z,32.90
2017-07-30T11:07:06.662Z,31.90
2017-07-30T11:09:34.924Z,32.40
2017-07-30T11:12:03.202Z,32.60
2017-07-30T11:14:32.045Z,32.80
2017-07-30T11:17:01.263Z,33.00
2017-07-30T11:19:30.307Z,32.30
2017-07-30T11:21:58.592Z,32.30
2017-07-30T11:24:27.706Z,32.90
2017-07-30T11:26:55.994Z,32.20
2017-07-30T11:29:24.243Z,32.10
2017-07-30T11:31:52.536Z,32.50
2017-07-30T11:34:20.825Z,33.00
2017-07-30T11:36:49.290Z,33.00
2017-07-30T11:39:18.591Z,32.90
2017-07-30T11:41:47.072Z,32.90
2017-07-30T11:44:15.329Z,32.30
2017-07-30T11:46:43.671Z,32.40
2017-07-30T11:49:11.987Z,32.50
2017-07-30T11:51:40.305Z,32.10
2017-07-30T11:54:09.343Z,31.90
2017-07-30T11:56:37.662Z,31.90
2017-07-30T11:59:05.952Z,32.30
2017-07-30T12:01:34.999Z,31.70
2017-07-30T12:04:03.258Z,31.70
2017-07-30T12:06:31.784Z,32.10
2017-07-30T12:09:00.051Z,31.90
2017-07-30T12:11:28.347Z,32.00
2017-07-30T12:13:57.404Z,31.40
2017-07-30T12:16:25.687Z,31.40
2017-07-30T12:18:53.939Z,31.30
2017-07-30T12:21:22.234Z,31.20
2017-07-30T12:23:50.492Z,30.80
2017-07-30T12:26:18.784Z,30.60
2017-07-30T12:28:47.047Z,30.50
2017-07-30T12:31:15.334Z,30.50
2017-07-30T12:33:43.588Z,30.30
2017-07-30T12:36:11.897Z,30.30
2017-07-30T12:38:40.139Z,30.20
2017-07-30T12:41:08.407Z,30.00
2017-07-30T12:43:36.696Z,30.00
2017-07-30T12:46:05.000Z,30.00
2017-07-30T12:48:33.274Z,30.00
2017-07-30T12:51:01.529Z,30.00
2017-07-30T12:53:29.828Z,30.00
2017-07-30T12:55:58.087Z,30.10
2017-07-30T12:58:26.376Z,30.40
2017-07-30T13:00:54.668Z,30.70
2017-07-30T13:03:23.155Z,30.60
2017-07-30T13:05:51.468Z,30.40
2017-07-30T13:08:19.729Z,30.10
2017-07-30T13:10:48.747Z,30.30
2017-07-30T13:13:17.036Z,30.30
2017-07-30T13:15:45.329Z,30.30
2017-07-30T13:18:13.588Z,30.70
2017-07-30T13:20:41.872Z,30.70
2017-07-30T13:23:10.156Z,31.00
2017-07-30T13:25:38.439Z,30.90
2017-07-30T13:28:06.740Z,30.60
2017-07-30T13:30:35.019Z,30.40
2017-07-30T13:33:03.277Z,30.40
2017-07-30T13:35:31.560Z,30.20
2017-07-30T13:37:59.851Z,29.90
2017-07-30T13:40:28.885Z,30.50
2017-07-30T13:42:57.183Z,30.40
2017-07-30T13:45:25.435Z,31.20
2017-07-30T13:47:53.691Z,31.80
2017-07-30T13:50:21.983Z,32.20
2017-07-30T13:52:51.225Z,32.20
2017-07-30T13:55:20.347Z,32.10
2017-07-30T13:57:49.407Z,31.40
2017-07-30T14:00:17.663Z,31.40
2017-07-30T14:02:45.955Z,30.80
2017-07-30T14:05:14.243Z,30.10
2017-07-30T14:07:42.536Z,29.60
2017-07-30T14:10:10.856Z,29.10
2017-07-30T14:12:39.111Z,28.70
2017-07-30T14:15:08.132Z,28.80
2017-07-30T14:17:36.420Z,28.80
2017-07-30T14:20:04.671Z,28.80
2017-07-30T14:22:32.969Z,29.00
2017-07-30T14:25:01.214Z,28.80
2017-07-30T14:27:29.502Z,28.70
2017-07-30T14:29:57.759Z,28.80
2017-07-30T14:32:26.068Z,28.70
2017-07-30T14:34:54.605Z,28.50
2017-07-30T14:37:22.855Z,28.30
2017-07-30T14:39:51.139Z,28.20
2017-07-30T14:42:19.504Z,28.10
2017-07-30T14:44:47.785Z,28.00
2017-07-30T14:47:16.160Z,28.30
2017-07-30T14:49:45.466Z,28.00
2017-07-30T14:52:13.751Z,27.70
2017-07-30T14:54:42.003Z,27.30
2017-07-30T14:57:10.288Z,27.10
2017-07-30T14:59:38.573Z,26.70
2017-07-30T15:02:06.832Z,26.60
2017-07-30T15:04:35.116Z,26.40
2017-07-30T15:07:03.404Z,26.40
2017-07-30T15:09:31.663Z,26.30
2017-07-30T15:11:59.963Z,26.60
2017-07-30T15:14:29.364Z,26.60
2017-07-30T15:16:57.672Z,26.90
2017-07-30T15:19:25.955Z,27.00
2017-07-30T15:21:54.261Z,27.30
2017-07-30T15:24:22.516Z,27.60
2017-07-30T15:26:50.796Z,27.70
2017-07-30T15:29:19.070Z,28.00
2017-07-30T15:31:47.356Z,28.10
2017-07-30T15:34:15.610Z,28.20
2017-07-30T15:36:43.919Z,28.30
2017-07-30T15:39:12.174Z,28.50
2017-07-30T15:41:40.431Z,28.60
2017-07-30T15:44:08.711Z,28.50
2017-07-30T15:46:36.958Z,28.30
2017-07-30T15:49:05.979Z,28.10
2017-07-30T15:51:34.283Z,28.10
2017-07-30T15:54:03.411Z,28.10
2017-07-30T15:56:31.676Z,27.80
2017-07-30T15:58:59.970Z,27.50
2017-07-30T16:01:29.003Z,27.60
2017-07-30T16:03:57.373Z,27.60
2017-07-30T16:06:25.624Z,27.70
2017-07-30T16:08:54.675Z,27.40
2017-07-30T16:11:23.047Z,27.40
2017-07-30T16:13:51.332Z,27.30
2017-07-30T16:16:19.731Z,27.10
2017-07-30T16:18:47.991Z,26.80
2017-07-30T16:21:16.243Z,26.60
2017-07-30T16:23:44.584Z,26.30
2017-07-30T16:26:13.731Z,26.00
2017-07-30T16:28:41.988Z,26.00
2017-07-30T16:31:11.169Z,26.00
2017-07-30T16:33:40.218Z,26.10
2017-07-30T16:36:08.474Z,26.10
2017-07-30T16:41:11.360Z,26.30
2017-07-30T16:43:39.620Z,26.40
2017-07-30T16:46:07.931Z,26.40
2017-07-30T16:48:36.186Z,26.30
2017-07-30T16:51:04.479Z,26.20
2017-07-30T16:53:32.743Z,26.20
2017-07-30T16:56:01.112Z,26.30
2017-07-30T16:58:29.404Z,26.30
2017-07-30T17:00:57.682Z,26.30
2017-07-30T17:03:25.992Z,26.10
2017-07-30T17:05:54.374Z,26.10
2017-07-30T17:08:22.626Z,26.10
2017-07-30T17:10:51.664Z,26.10
2017-07-30T17:13:19.967Z,26.00
2017-07-30T17:15:48.294Z,26.00
2017-07-30T17:18:17.344Z,25.80
2017-07-30T17:20:45.603Z,25.80
2017-07-30T17:23:14.123Z,25.80
2017-07-30T17:25:42.380Z,25.70
2017-07-30T17:28:11.467Z,25.70
2017-07-30T17:30:39.891Z,25.70
2017-07-30T17:33:09.001Z,25.50
2017-07-30T17:35:38.288Z,25.50
2017-07-30T17:38:07.349Z,25.40
2017-07-30T17:40:36.263Z,25.40
2017-07-30T17:43:05.308Z,25.30
2017-07-30T17:45:33.590Z,25.30
2017-07-30T17:48:02.818Z,25.20
2017-07-30T17:50:31.066Z,25.20
2017-07-30T17:52:59.359Z,25.20
2017-07-30T17:55:27.615Z,25.10
2017-07-30T17:57:55.922Z,25.00
2017-07-30T18:00:24.181Z,24.90
2017-07-30T18:02:52.451Z,24.80
2017-07-30T18:05:21.670Z,24.70
2017-07-30T18:07:49.939Z,24.60
2017-07-30T18:10:18.248Z,24.50
2017-07-30T18:12:46.528Z,24.40
2017-07-30T18:15:14.788Z,24.30
2017-07-30T18:17:43.839Z,24.30
2017-07-30T18:20:12.102Z,24.30
2017-07-30T18:22:41.000Z,24.30
2017-07-30T18:25:09.263Z,24.30
2017-07-30T18:27:37.555Z,24.30
2017-07-30T18:30:06.162Z,24.00
2017-07-30T18:32:34.523Z,23.80
2017-07-30T18:35:02.779Z,23.70
2017-07-30T18:37:31.059Z,23.70
2017-07-30T18:39:59.360Z,23.70
2017-07-30T18:42:27.632Z,23.70
2017-07-30T18:44:56.667Z,23.70
2017-07-30T18:47:25.124Z,23.70
2017-07-30T18:49:53.380Z,23.70
2017-07-30T18:52:21.655Z,23.60
2017-07-30T18:54:49.923Z,23.50
2017-07-30T18:57:18.207Z,23.10
2017-07-30T18:59:46.461Z,22.70
2017-07-30T19:02:14.822Z,22.40
2017-07-30T19:04:43.130Z,22.30
2017-07-30T19:07:11.507Z,22.30
2017-07-30T19:09:39.771Z,22.30
2017-07-30T19:12:08.956Z,22.30
2017-07-30T19:14:37.587Z,22.40
2017-07-30T19:17:05.872Z,22.10
2017-07-30T19:19:34.161Z,22.10
2017-07-30T19:22:03.203Z,21.90
2017-07-30T19:24:31.492Z,21.90
2017-07-30T19:26:59.752Z,21.80
2017-07-30T19:29:28.153Z,21.60
2017-07-30T19:31:56.408Z,21.50
2017-07-30T19:34:25.538Z,21.40
2017-07-30T19:36:53.909Z,21.20
2017-07-30T19:39:22.150Z,21.20
2017-07-30T19:41:50.439Z,21.10
2017-07-30T19:44:18.700Z,21.00
2017-07-30T19:46:46.982Z,20.90
2017-07-30T19:49:15.231Z,20.90
2017-07-30T19:51:43.518Z,20.80
2017-07-30T19:54:11.774Z,20.80
2017-07-30T19:56:40.083Z,20.70
2017-07-30T19:59:08.339Z,20.60
2017-07-30T20:01:36.658Z,20.50
2017-07-30T20:04:04.954Z,20.40
2017-07-30T20:06:33.206Z,20.50
2017-07-30T20:09:01.482Z,20.40
2017-07-30T20:11:29.876Z,20.40
2017-07-30T20:13:58.172Z,20.40
2017-07-30T20:16:27.194Z,20.30
2017-07-30T20:18:55.452Z,20.30
2017-07-30T20:21:24.598Z,20.40
2017-07-30T20:23:52.934Z,20.40
2017-07-30T20:26:21.254Z,20.30
2017-07-30T20:28:49.598Z,20.40
2017-07-30T20:31:17.875Z,20.40
2017-07-30T20:33:46.202Z,20.30
2017-07-30T20:36:14.471Z,20.30
2017-07-30T20:38:42.782Z,20.20
2017-07-30T20:41:11.806Z,20.20
2017-07-30T20:43:40.063Z,20.20
2017-07-30T20:46:08.349Z,20.20
2017-07-30T20:48:36.638Z,20.10
2017-07-30T20:51:04.926Z,20.10
2017-07-30T20:53:33.254Z,20.00
2017-07-30T20:56:02.285Z,19.90
2017-07-30T20:58:30.607Z,19.90
2017-07-30T21:00:58.898Z,19.90
2017-07-30T21:03:27.183Z,19.90
2017-07-30T21:05:56.234Z,19.90
2017-07-30T21:08:24.610Z,19.80
2017-07-30T21:10:52.862Z,19.90
2017-07-30T21:13:21.111Z,19.90
2017-07-30T21:15:50.259Z,20.00
2017-07-30T21:18:18.552Z,20.00
2017-07-30T21:20:47.142Z,20.10
2017-07-30T21:23:15.494Z,20.20
2017-07-30T21:25:43.775Z,20.20
2017-07-30T21:28:12.087Z,20.20
2017-07-30T21:30:41.166Z,20.20
2017-07-30T21:33:09.410Z,20.20
2017-07-30T21:35:37.707Z,20.20
2017-07-30T21:38:05.996Z,20.20
2017-07-30T21:40:34.285Z,20.10
2017-07-30T21:43:02.522Z,20.10
2017-07-30T21:45:30.838Z,20.10
2017-07-30T21:48:00.880Z,20.10
2017-07-30T21:50:29.162Z,20.10
2017-07-30T21:52:57.414Z,20.10
2017-07-30T21:55:26.566Z,20.00
2017-07-30T21:57:54.809Z,20.00
2017-07-30T22:00:23.123Z,20.00
2017-07-30T22:02:52.618Z,20.00
2017-07-30T22:05:20.915Z,20.00
2017-07-30T22:07:49.275Z,20.00
2017-07-30T22:10:17.559Z,20.00
2017-07-30T22:12:45.815Z,19.90
2017-07-30T22:15:14.189Z,19.90
2017-07-30T22:17:43.203Z,19.90
2017-07-30T22:20:11.556Z,19.80
2017-07-30T22:22:39.814Z,19.80
2017-07-30T22:25:08.098Z,19.80
2017-07-30T22:27:36.354Z,19.80
2017-07-30T22:30:04.720Z,19.70
2017-07-30T22:32:32.982Z,19.70
2017-07-30T22:35:01.291Z,19.70
2017-07-30T22:37:29.547Z,19.60
2017-07-30T22:39:58.598Z,19.50
2017-07-30T22:42:26.886Z,19.50
2017-07-30T22:44:55.142Z,19.40
